Time;durP1;ratioP1;P1;durP2;ratioP2;P2;SDS_P1;SDS_P2;PMS_P1;PMS_P2;Temp;Humidity;BMP_temperature;BMP_pressure;BME280_temperature;BME280_humidity;BME280_pressure;Samples;Min_cycle;Max_cycle;Signal;HPM_P1;HPM_P2
2023/07/21 00:01:51;;;;;;;2.00;1.75;;;;;;;;;;4924037;29;20066;-78
2023/07/21 00:04:20;;;;;;;2.55;1.88;;;;;;;;;;4926834;29;20070;-78
2023/07/21 00:06:47;;;;;;;1.85;1.63;;;;;;;;;;4912416;29;20058;-78
2023/07/21 00:09:16;;;;;;;3.85;1.90;;;;;;;;;;4939448;29;20508;-78
2023/07/21 00:11:43;;;;;;;3.42;1.70;;;;;;;;;;4921555;29;20151;-78
2023/07/21 00:14:11;;;;;;;3.15;2.00;;;;;;;;;;4923564;29;20059;-78
2023/07/21 00:16:40;;;;;;;2.85;2.22;;;;;;;;;;4929205;29;20050;-78
2023/07/21 00:19:08;;;;;;;1.52;1.40;;;;;;;;;;4919533;29;20064;-78
2023/07/21 00:21:35;;;;;;;5.20;2.25;;;;;;;;;;4908495;29;20059;-78
2023/07/21 00:24:04;;;;;;;3.10;2.03;;;;;;;;;;4906348;29;20052;-78
2023/07/21 00:26:35;;;;;;;1.83;1.60;;;;;;;;;;4921479;23;20050;-80
2023/07/21 00:29:03;;;;;;;2.13;1.90;;;;;;;;;;4955924;28;20051;-80
2023/07/21 00:31:32;;;;;;;4.50;2.58;;;;;;;;;;4936668;29;20067;-80
2023/07/21 00:33:59;;;;;;;2.45;2.25;;;;;;;;;;4933490;28;20066;-80
2023/07/21 00:36:29;;;;;;;2.33;1.83;;;;;;;;;;4943610;29;20047;-80
2023/07/21 00:38:58;;;;;;;3.33;2.33;;;;;;;;;;4927300;29;20426;-80
2023/07/21 00:41:26;;;;;;;1.85;1.60;;;;;;;;;;4931768;29;20047;-80
2023/07/21 00:43:57;;;;;;;3.92;2.13;;;;;;;;;;4940717;28;20062;-80
2023/07/21 00:46:26;;;;;;;3.33;2.05;;;;;;;;;;4941054;29;20040;-80
2023/07/21 00:48:56;;;;;;;2.67;2.03;;;;;;;;;;4929911;29;20065;-80
2023/07/21 00:51:23;;;;;;;3.38;2.00;;;;;;;;;;4945577;29;20056;-80
2023/07/21 00:53:51;;;;;;;6.78;2.45;;;;;;;;;;4959001;28;20055;-80
2023/07/21 00:56:18;;;;;;;2.53;2.22;;;;;;;;;;4948999;29;20052;-80
2023/07/21 00:58:46;;;;;;;3.80;1.88;;;;;;;;;;4953791;29;20047;-80
2023/07/21 01:01:17;;;;;;;2.72;2.20;;;;;;;;;;4935045;28;21164;-80
2023/07/21 01:03:44;;;;;;;2.28;2.00;;;;;;;;;;4933559;29;20438;-80
2023/07/21 01:06:14;;;;;;;4.25;1.80;;;;;;;;;;4935555;29;20062;-80
2023/07/21 01:08:41;;;;;;;6.05;2.03;;;;;;;;;;4936297;29;20061;-80
2023/07/21 01:11:11;;;;;;;2.92;1.75;;;;;;;;;;4928038;28;20066;-80
2023/07/21 01:13:40;;;;;;;2.42;1.73;;;;;;;;;;4929709;28;20062;-80
2023/07/21 01:16:12;;;;;;;3.97;2.15;;;;;;;;;;4930942;29;20047;-80
2023/07/21 01:18:43;;;;;;;3.67;2.60;;;;;;;;;;4943211;29;20074;-80
2023/07/21 01:21:14;;;;;;;2.80;2.08;;;;;;;;;;4965385;28;20050;-80
2023/07/21 01:23:46;;;;;;;3.10;2.08;;;;;;;;;;4946488;28;20394;-80
2023/07/21 01:26:15;;;;;;;3.80;2.70;;;;;;;;;;4963391;28;20047;-80
2023/07/21 01:28:43;;;;;;;4.03;2.00;;;;;;;;;;4933188;29;20043;-80
2023/07/21 01:31:13;;;;;;;5.43;2.83;;;;;;;;;;4944359;28;20059;-80
2023/07/21 01:33:41;;;;;;;3.42;2.70;;;;;;;;;;4963069;28;20046;-80
2023/07/21 01:36:08;;;;;;;2.53;2.15;;;;;;;;;;4929595;28;20470;-80
2023/07/21 01:38:37;;;;;;;3.17;2.40;;;;;;;;;;4930337;29;20051;-80
2023/07/21 01:41:07;;;;;;;2.58;2.35;;;;;;;;;;4944443;29;20047;-80
2023/07/21 01:43:38;;;;;;;2.42;2.20;;;;;;;;;;4929892;28;20054;-80
2023/07/21 01:46:10;;;;;;;2.80;2.45;;;;;;;;;;4933574;29;20055;-80
2023/07/21 01:48:40;;;;;;;3.28;1.95;;;;;;;;;;4932223;28;20175;-80
2023/07/21 01:51:10;;;;;;;4.13;2.60;;;;;;;;;;4924080;29;20394;-80
2023/07/21 01:53:38;;;;;;;4.00;3.08;;;;;;;;;;4942545;29;20058;-80
2023/07/21 01:56:11;;;;;;;4.10;2.40;;;;;;;;;;4936860;28;20066;-80
2023/07/21 01:58:41;;;;;;;2.90;2.15;;;;;;;;;;4927884;29;20051;-80
2023/07/21 02:01:12;;;;;;;3.58;2.47;;;;;;;;;;4930117;29;20051;-80
2023/07/21 02:03:40;;;;;;;4.18;2.90;;;;;;;;;;4931987;29;20059;-80
2023/07/21 02:06:14;;;;;;;4.30;2.75;;;;;;;;;;4948648;28;20050;-80
2023/07/21 02:08:41;;;;;;;2.55;2.30;;;;;;;;;;4949374;28;20390;-80
2023/07/21 02:11:10;;;;;;;3.50;2.65;;;;;;;;;;4933634;29;20429;-80
2023/07/21 02:13:51;;;;;;;4.18;2.42;;;;;;;;;;4950930;29;20386;-80
2023/07/21 02:16:22;;;;;;;3.53;2.88;;;;;;;;;;4928780;28;20365;-80
2023/07/21 02:18:54;;;;;;;3.58;2.85;;;;;;;;;;4932561;29;20088;-80
2023/07/21 02:21:22;;;;;;;3.15;2.63;;;;;;;;;;4934663;29;20545;-80
2023/07/21 02:23:51;;;;;;;7.82;2.65;;;;;;;;;;4948740;29;20047;-80
2023/07/21 02:26:21;;;;;;;3.13;2.60;;;;;;;;;;4932518;28;20043;-80
2023/07/21 02:28:53;;;;;;;2.80;2.50;;;;;;;;;;4928418;29;20059;-80
2023/07/21 02:31:21;;;;;;;3.15;2.47;;;;;;;;;;4926394;29;20055;-80
2023/07/21 02:33:48;;;;;;;3.65;2.70;;;;;;;;;;4930036;28;20055;-80
2023/07/21 02:36:18;;;;;;;4.60;3.60;;;;;;;;;;4933280;29;20054;-80
2023/07/21 02:38:45;;;;;;;3.90;3.28;;;;;;;;;;4931194;29;20055;-80
2023/07/21 02:41:13;;;;;;;4.05;2.78;;;;;;;;;;4943412;29;20065;-80
2023/07/21 02:43:40;;;;;;;2.67;2.35;;;;;;;;;;4932480;29;20059;-79
2023/07/21 02:46:09;;;;;;;3.13;2.45;;;;;;;;;;4934102;29;20055;-80
2023/07/21 02:48:38;;;;;;;3.90;2.70;;;;;;;;;;4936607;29;20047;-80
2023/07/21 02:51:05;;;;;;;3.10;2.83;;;;;;;;;;4951118;28;20051;-79
2023/07/21 02:53:43;;;;;;;3.85;2.65;;;;;;;;;;4952772;28;20053;-79
2023/07/21 02:56:10;;;;;;;3.42;2.85;;;;;;;;;;4937352;28;20051;-80
2023/07/21 02:58:55;;;;;;;4.25;2.40;;;;;;;;;;4945295;29;20055;-79
2023/07/21 03:01:29;;;;;;;6.13;2.33;;;;;;;;;;4917329;28;20062;-79
2023/07/21 03:04:03;;;;;;;3.10;2.80;;;;;;;;;;4919577;29;20050;-79
2023/07/21 03:06:34;;;;;;;5.35;2.90;;;;;;;;;;4957840;28;20058;-79
2023/07/21 03:09:05;;;;;;;3.05;2.60;;;;;;;;;;4929047;29;20528;-79
2023/07/21 03:11:33;;;;;;;3.40;2.80;;;;;;;;;;4918633;29;20074;-79
2023/07/21 03:14:15;;;;;;;2.70;2.17;;;;;;;;;;4934301;29;20417;-79
2023/07/21 03:16:46;;;;;;;3.38;2.50;;;;;;;;;;4919878;28;20449;-79
2023/07/21 03:19:13;;;;;;;4.10;2.72;;;;;;;;;;4932355;28;20051;-79
2023/07/21 03:21:44;;;;;;;3.22;2.60;;;;;;;;;;4922131;29;20051;-79
2023/07/21 03:24:12;;;;;;;3.50;3.17;;;;;;;;;;4931914;29;20046;-79
2023/07/21 03:26:44;;;;;;;3.47;2.70;;;;;;;;;;4910920;29;20525;-79
2023/07/21 03:29:14;;;;;;;3.05;2.65;;;;;;;;;;4934404;29;20306;-79
2023/07/21 03:31:47;;;;;;;3.22;2.63;;;;;;;;;;4933298;29;20043;-79
2023/07/21 03:34:17;;;;;;;3.95;2.90;;;;;;;;;;4926270;28;20058;-80
2023/07/21 03:36:47;;;;;;;8.75;3.38;;;;;;;;;;4911317;29;20062;-80
2023/07/21 03:39:14;;;;;;;4.25;2.85;;;;;;;;;;4941359;28;20056;-79
2023/07/21 03:41:42;;;;;;;2.33;2.13;;;;;;;;;;4946468;28;20453;-79
2023/07/21 03:44:13;;;;;;;4.18;2.58;;;;;;;;;;4920586;29;20062;-79
2023/07/21 03:46:43;;;;;;;3.40;2.80;;;;;;;;;;4932482;29;20505;-79
2023/07/21 03:49:18;;;;;;;3.20;2.88;;;;;;;;;;4916591;29;20429;-79
2023/07/21 03:51:51;;;;;;;3.47;2.72;;;;;;;;;;4923140;29;20055;-79
2023/07/21 03:54:21;;;;;;;3.80;2.67;;;;;;;;;;4933727;29;20054;-79
2023/07/21 03:56:49;;;;;;;3.85;2.63;;;;;;;;;;4929264;29;20568;-79
2023/07/21 03:59:18;;;;;;;2.88;2.03;;;;;;;;;;4910449;29;20054;-79
2023/07/21 04:01:48;;;;;;;3.55;2.70;;;;;;;;;;4913002;29;20054;-79
2023/07/21 04:04:19;;;;;;;3.25;2.53;;;;;;;;;;4936315;29;20417;-79
2023/07/21 04:06:48;;;;;;;3.78;3.17;;;;;;;;;;4930809;29;20051;-79
2023/07/21 04:09:16;;;;;;;3.40;2.53;;;;;;;;;;4935700;29;20056;-79
2023/07/21 04:11:43;;;;;;;2.50;2.30;;;;;;;;;;4933981;29;20047;-79
2023/07/21 04:14:14;;;;;;;2.90;2.55;;;;;;;;;;4924332;29;20062;-79
2023/07/21 04:16:44;;;;;;;4.55;2.13;;;;;;;;;;4925309;29;20425;-79
2023/07/21 04:19:13;;;;;;;3.33;2.38;;;;;;;;;;4919406;29;20047;-79
2023/07/21 04:21:45;;;;;;;3.65;2.58;;;;;;;;;;4935231;29;20058;-80
2023/07/21 04:24:12;;;;;;;4.85;2.83;;;;;;;;;;4913675;29;20055;-80
2023/07/21 04:26:41;;;;;;;2.72;2.25;;;;;;;;;;4937160;28;20062;-80
2023/07/21 04:29:11;;;;;;;2.50;2.22;;;;;;;;;;4939272;28;20047;-80
2023/07/21 04:31:43;;;;;;;3.05;2.10;;;;;;;;;;4931563;29;20054;-79
2023/07/21 04:34:13;;;;;;;2.78;2.22;;;;;;;;;;4943233;29;20058;-79
2023/07/21 04:36:47;;;;;;;4.75;2.50;;;;;;;;;;4935039;29;20506;-79
2023/07/21 04:39:30;;;;;;;3.40;2.60;;;;;;;;;;4920645;29;20051;-79
2023/07/21 04:41:58;;;;;;;6.97;3.60;;;;;;;;;;4935716;28;20069;-79
2023/07/21 04:44:27;;;;;;;4.60;2.45;;;;;;;;;;4925523;28;20414;-79
2023/07/21 04:46:54;;;;;;;3.63;2.47;;;;;;;;;;4912922;29;20500;-79
2023/07/21 04:49:25;;;;;;;3.42;2.50;;;;;;;;;;4930735;29;20039;-79
2023/07/21 04:51:54;;;;;;;5.43;2.78;;;;;;;;;;4937092;29;20059;-79
2023/07/21 04:54:22;;;;;;;4.03;2.55;;;;;;;;;;4920412;29;20055;-79
2023/07/21 04:56:52;;;;;;;3.08;2.70;;;;;;;;;;4938753;29;20402;-79
2023/07/21 04:59:21;;;;;;;5.15;3.30;;;;;;;;;;4946379;28;20417;-79
2023/07/21 05:01:51;;;;;;;3.22;2.55;;;;;;;;;;4940267;28;20058;-79
2023/07/21 05:04:20;;;;;;;2.85;2.63;;;;;;;;;;4929434;28;20051;-79
2023/07/21 05:06:49;;;;;;;4.20;2.55;;;;;;;;;;4935050;28;20406;-80
2023/07/21 05:09:20;;;;;;;2.67;2.47;;;;;;;;;;4943092;28;20040;-80
2023/07/21 05:11:50;;;;;;;3.17;2.28;;;;;;;;;;4953742;28;20061;-80
2023/07/21 05:14:40;;;;;;;6.57;4.50;;;;;;;;;;4950472;28;20594;-80
2023/07/21 05:17:39;;;;;;;7.22;3.15;;;;;;;;;;4935864;28;20643;-80
2023/07/21 05:20:21;;;;;;;5.13;2.73;;;;;;;;;;4924693;28;20055;-80
2023/07/21 05:23:10;;;;;;;3.75;2.53;;;;;;;;;;4941671;29;20405;-80
2023/07/21 05:25:44;;;;;;;4.05;2.70;;;;;;;;;;4920776;29;20058;-80
2023/07/21 05:28:14;;;;;;;3.75;2.72;;;;;;;;;;4932351;29;20051;-80
2023/07/21 05:30:48;;;;;;;6.13;3.70;;;;;;;;;;4969689;28;20450;-79
2023/07/21 05:33:17;;;;;;;3.25;2.40;;;;;;;;;;4920980;29;20062;-79
2023/07/21 05:35:46;;;;;;;3.20;2.45;;;;;;;;;;4941527;29;20062;-79
2023/07/21 05:38:18;;;;;;;2.45;2.20;;;;;;;;;;4946867;28;20054;-79
2023/07/21 05:40:57;;;;;;;4.15;2.58;;;;;;;;;;4924868;29;20054;-79
2023/07/21 05:43:28;;;;;;;3.28;2.65;;;;;;;;;;4915442;29;20093;-80
2023/07/21 05:45:55;;;;;;;5.35;3.08;;;;;;;;;;4918812;28;20594;-80
2023/07/21 05:48:24;;;;;;;3.30;2.85;;;;;;;;;;4920963;29;20039;-80
2023/07/21 07:18:59;;;;;;;7.10;6.05;;;;;;;;;;5060313;23;20052;-78
2023/07/21 07:21:41;;;;;;;3.22;2.60;;;;;;;;;;4918093;29;20059;-78
2023/07/21 07:24:26;;;;;;;;;;;;;;;;;;;;;
2023/07/21 07:27:12;;;;;;;5.35;3.03;;;;;;;;;;4949214;29;20055;-78
2023/07/21 07:30:09;;;;;;;;;;;;;;;;;;;;;
2023/07/21 07:33:02;;;;;;;;;;;;;;;;;;;;;
2023/07/21 07:36:09;;;;;;;;;;;;;;;;;;;;;
2023/07/21 07:38:51;;;;;;;4.50;2.45;;;;;;;;;;4879275;29;20068;-78
2023/07/21 07:41:35;;;;;;;;;;;;;;;;;;;;;
2023/07/21 07:44:39;;;;;;;2.50;2.28;;;;;;;;;;4886842;29;20044;-78
2023/07/21 07:47:08;;;;;;;3.33;2.15;;;;;;;;;;4868275;29;20157;-79
2023/07/21 07:49:43;;;;;;;8.68;2.33;;;;;;;;;;4906941;29;20043;-79
2023/07/21 07:52:25;;;;;;;;;;;;;;;;;;;;;
2023/07/21 07:54:55;;;;;;;7.25;2.88;;;;;;;;;;4938739;29;20055;-79
2023/07/21 07:57:28;;;;;;;5.18;2.72;;;;;;;;;;4957317;28;20059;-79
2023/07/21 08:00:07;;;;;;;6.05;4.20;;;;;;;;;;4968295;29;20047;-79
2023/07/21 08:02:41;;;;;;;3.15;2.42;;;;;;;;;;4929733;29;20054;-79
2023/07/21 08:05:11;;;;;;;5.28;2.63;;;;;;;;;;4937537;29;20409;-79
2023/07/21 08:07:40;;;;;;;3.00;2.75;;;;;;;;;;4933746;29;20043;-79
2023/07/21 08:10:08;;;;;;;3.80;2.78;;;;;;;;;;4931865;29;20536;-79
2023/07/21 08:12:43;;;;;;;3.95;2.80;;;;;;;;;;4937548;29;20050;-78
2023/07/21 08:15:49;;;;;;;3.42;2.78;;;;;;;;;;4954356;29;20054;-78
2023/07/21 08:18:56;;;;;;;;;;;;;;;;;;;;;
2023/07/21 08:21:49;;;;;;;3.80;2.53;;;;;;;;;;4936411;29;20051;-78
2023/07/21 08:25:07;;;;;;;;;;;;;;;;;;;;;
2023/07/21 08:28:16;;;;;;;5.88;2.03;;;;;;;;;;4894233;29;20434;-78
2023/07/21 08:32:27;;;;;;;;;;;;;;;;;;;;;
2023/07/21 08:35:52;;;;;;;;;;;;;;;;;;;;;
2023/07/21 08:39:40;;;;;;;;;;;;;;;;;;;;;
2023/07/21 08:46:35;;;;;;;4.43;2.45;;;;;;;;;;4852946;29;20049;-78
2023/07/21 08:50:18;;;;;;;;;;;;;;;;;;;;;
2023/07/21 08:53:15;;;;;;;3.40;2.10;;;;;;;;;;4843314;29;20064;-79
2023/07/21 08:55:53;;;;;;;3.80;2.20;;;;;;;;;;4863386;29;20045;-79
2023/07/21 08:58:21;;;;;;;6.57;2.03;;;;;;;;;;4867043;29;20052;-79
2023/07/21 09:01:05;;;;;;;3.83;2.00;;;;;;;;;;4900544;29;20056;-79
2023/07/21 09:03:47;;;;;;;2.45;2.08;;;;;;;;;;4911696;29;20392;-78
2023/07/21 09:06:15;;;;;;;2.65;1.90;;;;;;;;;;4917132;29;20082;-78
2023/07/21 09:08:47;;;;;;;2.38;1.85;;;;;;;;;;4936990;29;20501;-78
2023/07/21 09:11:15;;;;;;;1.70;1.50;;;;;;;;;;4939084;29;20055;-78
2023/07/21 09:13:51;;;;;;;2.42;1.60;;;;;;;;;;4939689;29;20050;-78
2023/07/21 09:16:22;;;;;;;5.05;1.67;;;;;;;;;;4938194;29;20055;-78
2023/07/21 09:18:52;;;;;;;2.30;2.10;;;;;;;;;;4935379;29;20059;-78
2023/07/21 09:21:20;;;;;;;3.22;1.90;;;;;;;;;;4932836;29;20051;-78
2023/07/21 09:23:48;;;;;;;5.32;1.70;;;;;;;;;;4928259;29;20058;-78
2023/07/21 09:26:17;;;;;;;1.38;1.20;;;;;;;;;;4939251;29;20051;-78
2023/07/21 09:28:45;;;;;;;3.38;1.30;;;;;;;;;;4938094;29;20070;-78
2023/07/21 09:31:13;;;;;;;2.50;1.60;;;;;;;;;;4918879;29;20070;-79
2023/07/21 09:33:43;;;;;;;1.60;1.20;;;;;;;;;;4936211;29;20035;-79
2023/07/21 09:36:13;;;;;;;1.27;1.15;;;;;;;;;;4935996;29;20043;-79
2023/07/21 09:38:43;;;;;;;;;;;;;;;;;;4950788;29;20044;-79
2023/07/21 09:41:14;;;;;;;2.03;1.33;;;;;;;;;;4952612;29;19922;-79
2023/07/21 09:43:43;;;;;;;2.08;1.23;;;;;;;;;;4937414;29;20137;-79
2023/07/21 09:46:11;;;;;;;2.78;1.38;;;;;;;;;;4953842;29;20055;-79
2023/07/21 09:48:38;;;;;;;2.90;1.10;;;;;;;;;;4937422;29;20055;-79
2023/07/21 09:51:08;;;;;;;2.03;1.55;;;;;;;;;;4933463;29;20075;-79
2023/07/21 09:53:40;;;;;;;1.60;1.43;;;;;;;;;;4936400;29;20055;-79
2023/07/21 09:56:10;;;;;;;2.38;1.73;;;;;;;;;;4955142;28;20058;-79
2023/07/21 09:58:44;;;;;;;2.25;1.55;;;;;;;;;;4937673;29;20501;-79
2023/07/21 10:01:14;;;;;;;1.77;1.58;;;;;;;;;;4936766;29;20054;-79
2023/07/21 10:03:42;;;;;;;5.35;2.47;;;;;;;;;;4922365;29;20047;-79
2023/07/21 10:06:12;;;;;;;4.57;1.80;;;;;;;;;;4935216;29;20510;-79
2023/07/21 10:08:41;;;;;;;5.18;1.83;;;;;;;;;;4934475;29;20070;-79
2023/07/21 10:11:08;;;;;;;3.88;2.42;;;;;;;;;;4921377;29;20047;-79
2023/07/21 10:13:43;;;;;;;4.03;1.77;;;;;;;;;;4936564;29;20518;-79
2023/07/21 10:16:15;;;;;;;3.08;1.77;;;;;;;;;;4938580;29;20422;-79
2023/07/21 10:19:02;;;;;;;2.67;2.17;;;;;;;;;;4938231;29;20055;-79
2023/07/21 10:21:32;;;;;;;2.38;1.88;;;;;;;;;;4936831;29;20058;-79
2023/07/21 10:24:02;;;;;;;3.30;2.42;;;;;;;;;;4933563;29;20062;-79
2023/07/21 10:26:32;;;;;;;3.42;2.65;;;;;;;;;;4946803;29;20054;-79
2023/07/21 10:29:15;;;;;;;2.80;1.83;;;;;;;;;;4953204;29;20055;-79
2023/07/21 10:31:51;;;;;;;2.20;1.90;;;;;;;;;;4926541;29;20043;-79
2023/07/21 10:34:29;;;;;;;3.97;2.30;;;;;;;;;;4938168;29;20051;-79
2023/07/21 10:37:02;;;;;;;4.10;1.58;;;;;;;;;;4921945;29;20059;-79
2023/07/21 10:39:32;;;;;;;2.30;1.80;;;;;;;;;;4933156;29;20049;-78
2023/07/21 10:42:06;;;;;;;7.47;2.03;;;;;;;;;;4931518;29;20070;-78
2023/07/21 10:44:37;;;;;;;2.58;1.50;;;;;;;;;;4937462;29;20086;-78
2023/07/21 10:47:06;;;;;;;3.10;2.03;;;;;;;;;;4921739;29;20102;-78
2023/07/21 10:49:38;;;;;;;7.30;2.25;;;;;;;;;;4948026;29;20406;-78
2023/07/21 10:52:08;;;;;;;1.50;1.40;;;;;;;;;;4918891;29;20058;-78
2023/07/21 10:54:40;;;;;;;12.68;2.15;;;;;;;;;;4933199;29;20055;-78
2023/07/21 10:57:09;;;;;;;3.85;2.08;;;;;;;;;;4919676;29;20532;-78
2023/07/21 10:59:37;;;;;;;5.53;1.60;;;;;;;;;;4937500;29;20050;-78
2023/07/21 11:02:07;;;;;;;2.55;2.03;;;;;;;;;;4936982;29;20055;-78
2023/07/21 11:04:36;;;;;;;2.03;1.77;;;;;;;;;;4953642;29;20058;-78
2023/07/21 11:07:06;;;;;;;4.38;2.20;;;;;;;;;;4935633;29;20077;-78
2023/07/21 11:09:35;;;;;;;1.95;1.60;;;;;;;;;;4950312;29;20055;-78
2023/07/21 11:12:07;;;;;;;2.55;1.75;;;;;;;;;;4949675;29;20408;-78
2023/07/21 11:14:34;;;;;;;2.47;1.80;;;;;;;;;;4936386;29;20071;-78
2023/07/21 11:17:05;;;;;;;3.38;1.50;;;;;;;;;;4935777;29;20047;-78
2023/07/21 11:19:33;;;;;;;5.20;1.58;;;;;;;;;;4919294;29;20058;-78
2023/07/21 11:22:01;;;;;;;3.03;1.60;;;;;;;;;;4951860;29;20039;-78
2023/07/21 11:24:30;;;;;;;2.30;1.83;;;;;;;;;;4918890;29;20528;-78
2023/07/21 11:27:02;;;;;;;3.85;1.65;;;;;;;;;;4917442;29;20055;-78
2023/07/21 11:29:36;;;;;;;1.50;1.25;;;;;;;;;;4936431;29;20055;-79
2023/07/21 11:32:16;;;;;;;1.92;1.25;;;;;;;;;;4953677;29;20055;-79
2023/07/21 11:34:43;;;;;;;2.47;1.60;;;;;;;;;;4936857;29;20055;-79
2023/07/21 11:37:11;;;;;;;3.58;1.25;;;;;;;;;;4935544;29;20066;-78
2023/07/21 11:39:40;;;;;;;8.00;1.30;;;;;;;;;;4954083;29;20051;-78
2023/07/21 11:42:10;;;;;;;2.83;1.25;;;;;;;;;;4935389;29;20051;-78
2023/07/21 11:44:41;;;;;;;2.53;1.95;;;;;;;;;;4921205;29;20066;-78
2023/07/21 11:47:10;;;;;;;1.73;1.17;;;;;;;;;;4919054;29;20062;-78
2023/07/21 11:49:39;;;;;;;1.40;1.10;;;;;;;;;;4935414;29;20510;-78
2023/07/21 11:52:09;;;;;;;1.15;0.82;;;;;;;;;;4949191;29;20413;-78
2023/07/21 11:54:38;;;;;;;2.80;1.23;;;;;;;;;;4953487;29;20429;-78
2023/07/21 11:57:08;;;;;;;1.40;1.13;;;;;;;;;;4935294;29;20063;-78
2023/07/21 11:59:38;;;;;;;1.30;1.10;;;;;;;;;;4936539;29;20078;-78
2023/07/21 12:02:08;;;;;;;2.55;1.63;;;;;;;;;;4936984;29;20047;-78
2023/07/21 12:04:38;;;;;;;4.38;1.42;;;;;;;;;;4951071;29;20063;-78
2023/07/21 12:07:07;;;;;;;2.17;1.58;;;;;;;;;;4920728;29;20410;-78
2023/07/21 12:09:34;;;;;;;2.35;1.40;;;;;;;;;;4919215;29;20055;-78
2023/07/21 12:12:01;;;;;;;1.05;0.95;;;;;;;;;;4935679;29;20074;-78
2023/07/21 12:14:31;;;;;;;1.35;1.25;;;;;;;;;;4953590;29;20522;-78
2023/07/21 12:16:58;;;;;;;12.52;1.70;;;;;;;;;;4920428;29;20066;-78
2023/07/21 12:19:29;;;;;;;4.43;1.27;;;;;;;;;;4917389;29;20077;-78
2023/07/21 12:21:58;;;;;;;2.92;1.10;;;;;;;;;;4935706;29;20520;-78
2023/07/21 12:24:26;;;;;;;1.85;1.42;;;;;;;;;;4932765;29;20055;-78
2023/07/21 12:26:53;;;;;;;2.65;1.27;;;;;;;;;;4936539;29;20059;-78
2023/07/21 12:29:23;;;;;;;2.20;1.23;;;;;;;;;;4934067;29;20043;-78
2023/07/21 12:31:51;;;;;;;1.90;1.50;;;;;;;;;;4935076;29;20035;-78
2023/07/21 12:34:18;;;;;;;3.85;1.73;;;;;;;;;;4916849;29;20048;-78
2023/07/21 12:36:47;;;;;;;2.17;1.45;;;;;;;;;;4934050;29;20078;-78
2023/07/21 12:39:17;;;;;;;2.55;1.55;;;;;;;;;;4918709;29;20050;-78
2023/07/21 12:41:46;;;;;;;1.98;1.40;;;;;;;;;;4919440;29;20047;-78
2023/07/21 12:44:21;;;;;;;3.85;1.38;;;;;;;;;;4920988;29;20066;-78
2023/07/21 12:46:51;;;;;;;1.90;1.80;;;;;;;;;;4934934;29;20054;-78
2023/07/21 12:49:18;;;;;;;1.92;1.02;;;;;;;;;;4919817;29;20058;-78
2023/07/21 12:51:50;;;;;;;2.90;1.70;;;;;;;;;;4950923;29;20390;-78
2023/07/21 12:54:17;;;;;;;3.15;1.63;;;;;;;;;;4936089;29;20062;-78
2023/07/21 12:56:47;;;;;;;2.85;1.40;;;;;;;;;;4928905;29;20055;-78
2023/07/21 12:59:17;;;;;;;2.00;1.13;;;;;;;;;;4917374;29;20051;-77
2023/07/21 13:01:44;;;;;;;3.08;1.45;;;;;;;;;;4931733;29;20058;-78
2023/07/21 13:04:15;;;;;;;2.20;1.27;;;;;;;;;;4936186;29;20601;-78
2023/07/21 13:06:45;;;;;;;2.75;1.85;;;;;;;;;;4951961;29;20417;-78
2023/07/21 13:09:14;;;;;;;1.58;1.15;;;;;;;;;;4932480;29;20063;-78
2023/07/21 13:11:44;;;;;;;2.13;1.50;;;;;;;;;;4934615;29;20071;-78
2023/07/21 13:14:13;;;;;;;2.80;1.67;;;;;;;;;;4935879;29;20058;-78
2023/07/21 13:16:45;;;;;;;1.88;1.30;;;;;;;;;;4920656;29;20071;-78
2023/07/21 13:19:13;;;;;;;2.00;1.52;;;;;;;;;;4934250;29;20064;-77
2023/07/21 13:21:40;;;;;;;2.22;1.45;;;;;;;;;;4948522;29;20055;-78
2023/07/21 13:24:07;;;;;;;1.20;1.10;;;;;;;;;;4934587;29;20069;-78
2023/07/21 13:26:38;;;;;;;2.50;1.85;;;;;;;;;;4911659;29;20066;-78
2023/07/21 13:29:05;;;;;;;1.38;1.13;;;;;;;;;;4933908;28;20429;-77
2023/07/21 13:31:35;;;;;;;2.25;1.77;;;;;;;;;;4935860;29;20410;-77
2023/07/21 13:34:05;;;;;;;4.55;1.60;;;;;;;;;;4919624;29;20059;-77
2023/07/21 13:36:33;;;;;;;3.10;1.40;;;;;;;;;;4928704;29;20055;-77
2023/07/21 13:39:00;;;;;;;1.27;1.08;;;;;;;;;;4921934;29;20070;-77
2023/07/21 13:41:27;;;;;;;5.05;2.00;;;;;;;;;;4934985;29;20058;-77
2023/07/21 13:43:56;;;;;;;3.15;1.52;;;;;;;;;;4943963;29;20055;-77
2023/07/21 13:46:24;;;;;;;1.85;1.55;;;;;;;;;;4933894;29;20058;-77
2023/07/21 13:48:51;;;;;;;2.50;1.77;;;;;;;;;;4921883;29;20410;-77
2023/07/21 13:51:21;;;;;;;4.07;1.52;;;;;;;;;;4951615;29;20062;-78
2023/07/21 13:53:53;;;;;;;1.43;1.23;;;;;;;;;;4937947;29;20043;-77
2023/07/21 13:56:23;;;;;;;8.77;2.17;;;;;;;;;;4938237;29;20515;-77
2023/07/21 13:58:51;;;;;;;2.95;1.60;;;;;;;;;;4938201;29;20047;-77
2023/07/21 14:01:20;;;;;;;1.60;1.30;;;;;;;;;;4921115;29;20051;-77
2023/07/21 14:03:52;;;;;;;2.78;1.52;;;;;;;;;;4923914;29;20402;-77
2023/07/21 14:06:24;;;;;;;2.67;1.52;;;;;;;;;;4937143;29;20058;-77
2023/07/21 14:08:51;;;;;;;2.53;1.67;;;;;;;;;;4920878;29;20051;-77
2023/07/21 14:11:18;;;;;;;1.77;1.20;;;;;;;;;;4934659;29;20055;-77
2023/07/21 14:13:46;;;;;;;2.17;1.50;;;;;;;;;;4917202;29;20059;-77
2023/07/21 14:16:13;;;;;;;2.22;1.30;;;;;;;;;;4935635;29;20066;-77
2023/07/21 14:18:41;;;;;;;4.75;1.38;;;;;;;;;;4917290;29;20058;-77
2023/07/21 14:21:09;;;;;;;3.22;1.73;;;;;;;;;;4937268;29;20070;-78
2023/07/21 14:23:39;;;;;;;1.77;0.93;;;;;;;;;;4916039;29;20047;-78
2023/07/21 14:26:06;;;;;;;2.28;1.70;;;;;;;;;;4921440;29;20074;-78
2023/07/21 14:28:35;;;;;;;2.30;1.52;;;;;;;;;;4953021;29;20063;-78
2023/07/21 14:31:04;;;;;;;2.40;1.60;;;;;;;;;;4934690;29;20059;-78
2023/07/21 14:33:34;;;;;;;1.67;1.40;;;;;;;;;;4954880;29;20062;-78
2023/07/21 14:36:02;;;;;;;1.90;1.55;;;;;;;;;;4950585;29;20051;-78
2023/07/21 14:38:31;;;;;;;2.47;1.92;;;;;;;;;;4950788;29;20070;-78
2023/07/21 14:41:01;;;;;;;1.70;1.50;;;;;;;;;;4927999;29;20163;-78
2023/07/21 14:43:28;;;;;;;2.60;2.00;;;;;;;;;;4937149;29;20062;-78
2023/07/21 14:45:55;;;;;;;2.15;1.70;;;;;;;;;;4937599;29;20051;-78
2023/07/21 14:48:23;;;;;;;2.08;1.30;;;;;;;;;;4920119;29;20439;-77
2023/07/21 14:50:52;;;;;;;5.57;1.67;;;;;;;;;;4920151;29;20043;-77
2023/07/21 14:53:24;;;;;;;3.55;2.17;;;;;;;;;;4935160;29;20042;-77
2023/07/21 14:55:53;;;;;;;3.38;2.85;;;;;;;;;;4953549;29;20047;-77
2023/07/21 14:58:23;;;;;;;2.17;1.50;;;;;;;;;;4934361;29;20414;-77
2023/07/21 15:00:50;;;;;;;3.42;2.10;;;;;;;;;;4951726;29;20052;-77
2023/07/21 15:03:20;;;;;;;1.90;1.58;;;;;;;;;;4950223;29;20054;-77
2023/07/21 15:05:47;;;;;;;1.40;1.30;;;;;;;;;;4920359;29;20062;-78
2023/07/21 15:08:17;;;;;;;2.08;1.65;;;;;;;;;;4941608;28;20541;-78
2023/07/21 15:10:48;;;;;;;1.63;1.52;;;;;;;;;;4956924;29;20061;-78
2023/07/21 15:13:15;;;;;;;2.30;1.50;;;;;;;;;;4966836;28;20031;-79
2023/07/21 15:15:45;;;;;;;3.70;1.30;;;;;;;;;;4944675;29;20030;-79
2023/07/21 15:18:12;;;;;;;3.63;1.90;;;;;;;;;;4953874;28;20054;-79
2023/07/21 15:20:40;;;;;;;4.18;2.05;;;;;;;;;;4937218;29;20055;-79
2023/07/21 15:23:07;;;;;;;3.60;1.48;;;;;;;;;;4927126;29;20047;-79
2023/07/21 15:25:36;;;;;;;2.47;1.73;;;;;;;;;;4957160;28;20062;-78
2023/07/21 15:28:07;;;;;;;3.00;1.77;;;;;;;;;;4921141;29;20051;-79
2023/07/21 15:30:35;;;;;;;3.30;1.77;;;;;;;;;;4938165;29;20051;-79
2023/07/21 15:33:05;;;;;;;2.28;1.52;;;;;;;;;;4942337;29;20058;-79
2023/07/21 15:35:43;;;;;;;2.70;1.75;;;;;;;;;;4941074;29;20070;-79
2023/07/21 15:38:11;;;;;;;2.25;1.73;;;;;;;;;;4950034;29;20047;-79
2023/07/21 15:40:38;;;;;;;2.55;1.75;;;;;;;;;;4925157;29;20058;-79
2023/07/21 15:43:07;;;;;;;3.28;1.50;;;;;;;;;;4923200;29;20414;-79
2023/07/21 15:45:34;;;;;;;6.55;1.70;;;;;;;;;;4922405;29;20051;-79
2023/07/21 15:48:01;;;;;;;1.85;1.73;;;;;;;;;;4939746;29;20065;-79
2023/07/21 15:50:31;;;;;;;3.38;2.03;;;;;;;;;;4958364;29;20051;-79
2023/07/21 15:53:00;;;;;;;1.80;1.70;;;;;;;;;;4934552;29;20054;-79
2023/07/21 15:55:30;;;;;;;4.95;1.67;;;;;;;;;;4957335;29;20055;-79
2023/07/21 15:58:00;;;;;;;2.95;1.77;;;;;;;;;;4957539;29;20055;-79
2023/07/21 16:00:28;;;;;;;3.17;2.30;;;;;;;;;;4936904;29;20054;-79
2023/07/21 16:03:00;;;;;;;3.25;1.55;;;;;;;;;;4904667;29;20066;-79
2023/07/21 16:05:28;;;;;;;4.97;1.60;;;;;;;;;;4922715;29;20441;-79
2023/07/21 16:07:55;;;;;;;2.22;1.75;;;;;;;;;;4944239;29;20043;-79
2023/07/21 16:10:25;;;;;;;2.25;1.50;;;;;;;;;;4914847;29;20047;-79
2023/07/21 16:12:54;;;;;;;3.15;1.42;;;;;;;;;;4941652;29;20062;-79
2023/07/21 16:15:27;;;;;;;2.22;1.35;;;;;;;;;;4943611;29;20062;-79
2023/07/21 16:17:56;;;;;;;3.05;1.75;;;;;;;;;;4940504;29;20055;-79
2023/07/21 16:20:23;;;;;;;1.90;1.20;;;;;;;;;;4941142;29;20054;-79
2023/07/21 16:22:52;;;;;;;3.33;1.42;;;;;;;;;;4956106;29;20043;-79
2023/07/21 16:25:22;;;;;;;2.83;1.40;;;;;;;;;;4940298;29;20055;-79
2023/07/21 16:27:52;;;;;;;1.52;1.30;;;;;;;;;;4939375;29;20055;-79
2023/07/21 16:30:21;;;;;;;3.22;1.27;;;;;;;;;;4938270;29;20052;-79
2023/07/21 16:32:50;;;;;;;3.97;2.08;;;;;;;;;;4920112;29;20044;-79
2023/07/21 16:35:20;;;;;;;1.63;1.52;;;;;;;;;;4939418;29;20043;-79
2023/07/21 16:37:48;;;;;;;2.63;1.40;;;;;;;;;;4957439;29;20050;-79
2023/07/21 16:40:16;;;;;;;2.75;1.90;;;;;;;;;;4939469;29;20063;-79
2023/07/21 16:42:46;;;;;;;1.33;1.20;;;;;;;;;;4941869;29;20058;-79
2023/07/21 16:45:14;;;;;;;3.22;1.42;;;;;;;;;;4941843;29;20059;-79
2023/07/21 16:47:44;;;;;;;3.83;1.70;;;;;;;;;;4940266;29;20051;-79
2023/07/21 16:50:14;;;;;;;2.15;1.65;;;;;;;;;;4925538;29;20434;-79
2023/07/21 16:52:42;;;;;;;1.95;1.60;;;;;;;;;;4957837;29;20051;-79
2023/07/21 16:55:10;;;;;;;3.22;1.45;;;;;;;;;;4936473;29;20066;-79
2023/07/21 16:57:39;;;;;;;3.08;2.70;;;;;;;;;;4931461;29;20063;-79